Owls Head, ME (04854)

2:14 AM EST on December 04, 2016 (GMT -0500)
Upper Park Street | | Change Station

Elev 79 ft 44.10 °N, 69.13 °W | Updated 3 seconds ago

Overcast
Overcast
38.1 °F
Feels Like 32 °F
N
8.2
Wind Variable Wind from NNW
Gusts 17.0 mph

Today
High -- | Low -- °F
--% Chance of Precip.
Yesterday
High -- | Low -- °F
Precip. -- in
Pressure 30.04 in
Visibility 10.0 miles
Clouds Overcast 4700 ft
Windchill 32 °F
Dew Point 28 °F
Humidity 67%
Rainfall 0.00 in
Snow Depth Not available.
6:54 AM 3:58 PM
Waxing Crescent, 20% visible
METAR KRKD 040656Z AUTO VRB06KT 10SM OVC047 01/M06 A3003 RMK AO2 SLP170 T00061056 FZRANO
Pressure 30.04 in
Visibility 10.0 miles
Clouds Overcast 4700 ft
Windchill 32 °F
Dew Point 28 °F
Humidity 67%
Rainfall 0.00 in
Snow Depth Not available.
6:54 AM 3:58 PM
Waxing Crescent, 20% visible
METAR KRKD 040656Z AUTO VRB06KT 10SM OVC047 01/M06 A3003 RMK AO2 SLP170 T00061056 FZRANO

10-Day Weather Forecast

Almanac

Astronomy

Dec. 04, 2016 Rise Set
Actual Time
Civil Twilight
Nautical Twilight
Astronomical Twilight
Moon
Length of Visible Light
Length of Day
Tomorrow will be .
, % of the Moon is Illuminated

Today's Extremes

State Highs State Lows

Community

WunderPhotos

Upload Photos

1,955,587 photos uploaded!

WunderBlog® & News

Nearby

Air Quality

  Air Quality AQ Index Pollutant
Not available.

Snow Depth

Station Depth Elevation

Earthquake Activity

City Distance Mag. Time & Date
Minimum magnitude displayed is 2.5.

Coastal Water Temperatures

Place Temperature

Stations

Nearby Weather Stations

Station Location Temp. Windchill Dew Point Humidity Wind Precip. Elev Updated Type
                   

Watches & Warnings

There are currently no watches in effect.